This is the latest recevied weather packets stored in our database for station/object N4ZIQ. If no packets are shown the sender has not sent any weather packets the latest 10 day(s).
| Time | Temp. | Humidity | Pressure | Rain* | Wind** | Luminosity | Snow |
|---|---|---|---|---|---|---|---|
| 1777687255 | 25.56° C | 67% | 1011.3 hPa | 0 mm | - | 0 W/m² | - |
| 1777686948 | 25.56° C | 68% | 1011.2 hPa | 0 mm | - | 0 W/m² | - |
| 1777686648 | 25° C | 71% | 1011.1 hPa | 0 mm | - | 0 W/m² | - |
| 1777686353 | 23.89° C | 75% | 1011.1 hPa | 0 mm | - | 0 W/m² | - |
| 1777686048 | 23.89° C | 75% | 1011 hPa | 0 mm | - | 0 W/m² | - |
| 1777685746 | 23.89° C | 73% | 1011.1 hPa | 0 mm | - | 0 W/m² | - |
| 1777685459 | 24.44° C | 71% | 1011.1 hPa | 0 mm | - | 0 W/m² | - |
| 1777685145 | 25.56° C | 68% | 1011 hPa | 0 mm | - | 0 W/m² | - |
| 1777684847 | 26.11° C | 67% | 1011 hPa | 0 mm | - | 0 W/m² | - |
| 1777684556 | 26.11° C | 67% | 1010.9 hPa | 0 mm | - | 0 W/m² | - |
| 1777684247 | 25.56° C | 69% | 1010.8 hPa | 0 mm | - | 0 W/m² | - |
| 1777683948 | 24.44° C | 74% | 1010.7 hPa | 0 mm | - | 0 W/m² | - |
| 1777683652 | 23.33° C | 79% | 1010.7 hPa | 0 mm | - | 0 W/m² | - |
| 1777683348 | 22.78° C | 79% | 1010.7 hPa | 0 mm | - | 0 W/m² | - |
| 1777683049 | 23.33° C | 79% | 1010.6 hPa | 0 mm | - | 0 W/m² | - |
| 1777682749 | 23.33° C | 79% | 1010.5 hPa | 0 mm | - | 0 W/m² | - |
| 1777682447 | 23.33° C | 79% | 1010.3 hPa | 0 mm | - | 0 W/m² | - |
| 1777682148 | 23.33° C | 78% | 1010.3 hPa | 0 mm | - | 0 W/m² | - |
| 1777681854 | 23.89° C | 77% | 1010.1 hPa | 0 mm | - | 0 W/m² | - |
| 1777681549 | 23.89° C | 75% | 1010 hPa | 0 mm | - | 0 W/m² | - |
| 1777681247 | 23.89° C | 75% | 1010 hPa | 0 mm | - | 0 W/m² | - |
| 1777680966 | 24.44° C | 73% | 1009.9 hPa | 0 mm | - | 0 W/m² | - |
| 1777680647 | 25° C | 73% | 1009.8 hPa | 0 mm | - | 0 W/m² | - |
| 1777680349 | 25.56° C | 71% | 1009.8 hPa | 0 mm | - | 0 W/m² | - |
| 1777680069 | 26.11° C | 69% | 1009.8 hPa | 0 mm | - | 0 W/m² | - |
* Rain latest hour (hover to see other rain measurements)
** Current wind speed in m/s (hover to see current wind gust speed)